Time;durP1;ratioP1;P1;durP2;ratioP2;P2;SDS_P1;SDS_P2;PMS_P1;PMS_P2;Temp;Humidity;BMP_temperature;BMP_pressure;BME280_temperature;BME280_humidity;BME280_pressure;Samples;Min_cycle;Max_cycle;Signal;HPM_P1;HPM_P2
2022/01/22 00:01:55;;;;;;;144.13;59.33;;;;;;;10.94;100.00;98014.78;4811390;29;20187;-67
2022/01/22 00:04:44;;;;;;;141.27;57.70;;;;;;;10.97;100.00;98024.97;4815926;29;20054;-67
2022/01/22 00:07:25;;;;;;;157.48;59.67;;;;;;;11.00;100.00;98014.53;4814941;29;20089;-67
2022/01/22 00:10:19;;;;;;;152.63;59.13;;;;;;;11.11;100.00;98012.31;4812999;29;20054;-68
2022/01/22 00:15:53;;;;;;;143.52;58.40;;;;;;;11.04;100.00;98010.06;4815982;29;20061;-67
2022/01/22 00:18:35;;;;;;;139.43;57.65;;;;;;;10.94;100.00;97999.31;4798681;29;20058;-67
2022/01/22 00:21:23;;;;;;;151.90;60.25;;;;;;;10.99;100.00;97999.13;4801942;29;20072;-67
2022/01/22 00:24:07;;;;;;;149.25;59.75;;;;;;;11.03;100.00;97996.34;4816340;29;20064;-67
2022/01/22 00:26:55;;;;;;;156.73;61.67;;;;;;;11.08;100.00;98006.47;4818381;29;20070;-68
2022/01/22 00:29:44;;;;;;;157.82;60.22;;;;;;;11.08;100.00;98001.31;4815639;29;20085;-67
2022/01/22 00:32:27;;;;;;;155.07;60.20;;;;;;;11.04;100.00;98000.59;4800510;29;20068;-67
2022/01/22 00:35:10;;;;;;;160.65;61.85;;;;;;;11.15;100.00;97997.56;4790506;29;20077;-68
2022/01/22 00:38:00;;;;;;;148.18;60.50;;;;;;;11.10;100.00;98005.47;4801110;29;20141;-67
2022/01/22 00:40:51;;;;;;;147.38;60.90;;;;;;;11.10;100.00;97997.75;4793565;29;20440;-67
2022/01/22 00:43:39;;;;;;;166.60;62.57;;;;;;;11.04;100.00;97985.13;4801735;29;20058;-67
2022/01/22 00:46:22;;;;;;;158.60;62.00;;;;;;;11.05;100.00;97985.97;4816301;29;20137;-67
2022/01/22 00:49:11;;;;;;;149.00;60.47;;;;;;;11.04;100.00;97990.28;4815206;29;20069;-67
2022/01/22 00:52:00;;;;;;;161.07;60.65;;;;;;;11.06;100.00;97996.22;4817757;29;20644;-67
2022/01/22 00:54:48;;;;;;;147.27;62.15;;;;;;;10.97;100.00;97999.19;4816763;29;20313;-68
2022/01/22 00:57:29;;;;;;;149.85;63.55;;;;;;;10.95;100.00;98007.88;4802556;29;20054;-67
2022/01/22 01:00:21;;;;;;;164.57;67.07;;;;;;;10.90;100.00;98013.25;4817050;29;20207;-67
2022/01/22 01:03:03;;;;;;;166.45;65.50;;;;;;;10.94;100.00;98007.03;4819229;29;20054;-67
2022/01/22 01:05:52;;;;;;;160.98;64.38;;;;;;;10.94;100.00;98016.50;4810463;29;20054;-67
2022/01/22 01:08:36;;;;;;;156.15;64.90;;;;;;;10.90;100.00;98026.13;4816072;29;20163;-67
2022/01/22 01:11:27;;;;;;;161.73;61.95;;;;;;;10.95;100.00;98023.34;4801105;29;20055;-67
2022/01/22 01:14:15;;;;;;;168.60;65.97;;;;;;;10.97;100.00;98035.28;4801850;29;20058;-67
2022/01/22 01:32:18;;;;;;;161.95;63.42;;;;;;;11.04;100.00;98069.34;4817522;29;20073;-68
2022/01/22 01:35:08;;;;;;;161.88;65.25;;;;;;;11.00;100.00;98075.56;4801696;29;20141;-68
2022/01/22 01:37:53;;;;;;;170.52;65.70;;;;;;;11.08;100.00;98078.66;4801422;29;20123;-68
2022/01/22 01:40:44;;;;;;;179.95;68.53;;;;;;;11.05;100.00;98074.44;4804095;29;20133;-67
2022/01/22 01:43:32;;;;;;;179.02;72.13;;;;;;;11.05;100.00;98078.75;4810031;29;20046;-67
2022/01/22 01:46:53;;;;;;;200.57;77.57;;;;;;;11.01;100.00;98095.28;4802828;29;20069;-67
2022/01/22 01:49:37;;;;;;;177.00;72.35;;;;;;;10.95;100.00;98093.75;4748181;29;20502;-67
2022/01/22 01:58:42;;;;;;;182.07;74.32;;;;;;;10.85;100.00;98086.50;4791875;29;20677;-67
2022/01/22 02:01:23;;;;;;;191.02;76.43;;;;;;;10.90;100.00;98085.38;4784131;29;20133;-67
2022/01/22 02:04:14;;;;;;;196.98;80.10;;;;;;;10.96;100.00;98099.75;4796979;29;20062;-67
2022/01/22 02:06:56;;;;;;;233.50;96.22;;;;;;;10.93;100.00;98100.75;4801243;29;20058;-66
2022/01/22 02:09:50;;;;;;;252.65;104.82;;;;;;;10.88;100.00;98105.22;4800514;29;20053;-67
2022/01/22 02:24:45;;;;;;;293.67;123.38;;;;;;;10.86;100.00;98058.06;4801720;29;20073;-67
2022/01/22 02:27:41;;;;;;;308.63;126.10;;;;;;;10.91;100.00;98057.88;4787539;29;20149;-67
2022/01/22 02:30:29;;;;;;;310.20;131.85;;;;;;;10.77;100.00;98048.16;4807207;29;20626;-68
2022/01/22 02:33:46;;;;;;;315.25;136.88;;;;;;;10.81;100.00;98052.28;4816013;29;20138;-67
2022/01/22 02:36:42;;;;;;;327.98;140.00;;;;;;;10.85;100.00;98063.31;4801440;29;20050;-67
2022/01/22 02:39:38;;;;;;;330.13;139.75;;;;;;;10.69;100.00;98065.66;4800611;29;20058;-67
2022/01/22 02:42:33;;;;;;;330.15;139.93;;;;;;;10.82;100.00;98071.97;4799857;29;20050;-67
2022/01/22 02:45:18;;;;;;;335.25;141.63;;;;;;;10.77;100.00;98084.22;4810151;29;20046;-68
2022/01/22 02:48:09;;;;;;;324.05;137.48;;;;;;;10.82;100.00;98107.22;4814075;29;20066;-67
2022/01/22 02:50:50;;;;;;;328.30;141.55;;;;;;;10.86;100.00;98107.00;4801137;29;20457;-68
2022/01/22 02:53:41;;;;;;;320.02;137.38;;;;;;;10.86;100.00;98096.72;4794860;29;20062;-67
2022/01/22 02:56:24;;;;;;;330.77;138.50;;;;;;;10.86;100.00;98104.44;4800344;29;20050;-68
2022/01/22 02:59:20;;;;;;;;;;;;;;;10.84;100.00;98100.28;4788243;29;20078;-67
2022/01/22 03:02:04;;;;;;;334.90;144.50;;;;;;;10.83;100.00;98096.84;4800103;29;20336;-67
2022/01/22 03:04:53;;;;;;;352.55;146.75;;;;;;;10.88;100.00;98097.50;4800185;29;20185;-68
2022/01/22 03:07:36;;;;;;;355.02;148.18;;;;;;;10.82;100.00;98100.31;4816745;29;20100;-67
2022/01/22 03:10:27;;;;;;;339.92;153.05;;;;;;;10.89;100.00;98106.91;4800872;29;20062;-68
2022/01/22 03:16:48;;;;;;;369.67;162.77;;;;;;;10.96;100.00;98105.75;4816583;29;20056;-68
2022/01/22 03:28:59;;;;;;;362.27;161.13;;;;;;;11.13;100.00;98113.63;4801808;29;20077;-67
2022/01/22 03:31:42;;;;;;;359.60;156.55;;;;;;;11.30;100.00;98100.03;4800202;29;20062;-67
2022/01/22 03:34:36;;;;;;;351.38;154.38;;;;;;;11.28;100.00;98104.41;4816901;29;20073;-68
2022/01/22 03:37:18;;;;;;;345.95;150.57;;;;;;;11.18;100.00;98091.97;4817117;29;20065;-67
2022/01/22 03:40:08;;;;;;;357.15;150.63;;;;;;;11.21;100.00;98099.59;4800179;29;20396;-68
2022/01/22 03:42:52;;;;;;;340.52;145.77;;;;;;;11.14;100.00;98104.16;4814461;29;20066;-67
2022/01/22 03:45:41;;;;;;;348.92;145.35;;;;;;;11.02;100.00;98109.81;4796856;29;20064;-68
2022/01/22 03:48:23;;;;;;;350.90;145.48;;;;;;;11.15;100.00;98115.31;4815356;29;20145;-67
2022/01/22 03:51:13;;;;;;;338.45;146.13;;;;;;;11.26;100.00;98119.09;4783262;29;20633;-68
2022/01/22 03:53:56;;;;;;;334.90;148.63;;;;;;;11.28;100.00;98116.47;4817591;29;20149;-67
2022/01/22 03:56:47;;;;;;;342.35;149.38;;;;;;;11.39;100.00;98116.88;4802569;29;20384;-67
2022/01/22 03:59:34;;;;;;;344.10;150.23;;;;;;;11.47;100.00;98117.38;4796691;29;20133;-67
2022/01/22 04:05:16;;;;;;;365.15;159.07;;;;;;;11.41;100.00;98122.81;4817928;29;20479;-67
2022/01/22 04:10:46;;;;;;;365.88;155.05;;;;;;;11.55;100.00;98151.41;4819183;29;20129;-68
2022/01/22 04:13:36;;;;;;;351.23;150.10;;;;;;;11.45;100.00;98150.97;4801686;29;20058;-68
2022/01/22 04:16:18;;;;;;;367.42;154.30;;;;;;;11.48;100.00;98158.59;4819886;29;20126;-67
2022/01/22 04:25:19;;;;;;;318.25;129.20;;;;;;;11.57;100.00;98170.25;4783741;30;20116;-67
2022/01/22 04:28:03;;;;;;;292.40;126.38;;;;;;;11.57;100.00;98175.41;4788174;29;20754;-67
2022/01/22 04:30:52;;;;;;;289.10;124.15;;;;;;;11.63;100.00;98182.06;4785786;29;20150;-67
2022/01/22 04:33:34;;;;;;;277.05;122.60;;;;;;;11.61;100.00;98187.28;4800099;29;20066;-68
2022/01/22 04:36:30;;;;;;;267.42;113.63;;;;;;;11.71;100.00;98193.72;4783580;29;20433;-67
2022/01/22 04:39:07;;;;;;;265.50;110.40;;;;;;;11.70;100.00;98201.53;4798487;29;20820;-67
2022/01/22 04:42:02;;;;;;;247.15;106.18;;;;;;;11.78;100.00;98205.50;4800815;29;20055;-67
2022/01/22 04:44:45;;;;;;;248.23;104.03;;;;;;;11.61;100.00;98199.31;4783385;29;20055;-67
2022/01/22 04:47:49;;;;;;;244.25;103.22;;;;;;;11.74;100.00;98211.69;4784366;29;20054;-67
2022/01/22 04:56:37;;;;;;;239.32;98.35;;;;;;;11.81;100.00;98215.66;4783619;29;20161;-67
2022/01/22 04:59:25;;;;;;;231.25;97.70;;;;;;;11.83;100.00;98224.19;4783642;29;20051;-68
2022/01/22 05:02:08;;;;;;;237.27;99.40;;;;;;;11.85;100.00;98224.97;4799962;29;20055;-68
2022/01/22 05:05:17;;;;;;;219.20;95.53;;;;;;;11.86;100.00;98234.41;4782521;29;20047;-68
2022/01/22 05:08:09;;;;;;;230.15;96.63;;;;;;;11.89;100.00;98236.81;4783385;29;20074;-67
2022/01/22 05:11:27;;;;;;;231.52;98.05;;;;;;;11.92;100.00;98237.59;4785199;29;20498;-67
2022/01/22 05:14:09;;;;;;;232.57;100.15;;;;;;;11.83;100.00;98244.84;4782943;30;20070;-68
2022/01/22 05:17:03;;;;;;;233.13;97.95;;;;;;;11.93;100.00;98234.13;4776292;29;20166;-68
2022/01/22 05:20:03;;;;;;;226.20;98.18;;;;;;;11.93;100.00;98242.72;4783703;29;20074;-68
2022/01/22 05:23:13;;;;;;;221.77;98.28;;;;;;;11.90;100.00;98232.50;4800775;29;20122;-68
2022/01/22 05:26:00;;;;;;;228.88;100.97;;;;;;;11.74;100.00;98237.47;4783885;29;20094;-68
2022/01/22 05:38:13;;;;;;;225.05;98.97;;;;;;;11.88;100.00;98231.75;4781879;29;20047;-68
2022/01/22 05:40:55;;;;;;;226.98;95.32;;;;;;;11.88;100.00;98234.34;4784316;29;20393;-68
2022/01/22 05:43:36;;;;;;;217.10;94.97;;;;;;;11.97;100.00;98222.78;4779912;29;20655;-67
2022/01/22 05:46:25;;;;;;;225.90;98.07;;;;;;;12.03;100.00;98225.09;4798323;29;20495;-68
2022/01/22 05:49:06;;;;;;;226.90;95.78;;;;;;;12.08;100.00;98210.22;4783164;29;20079;-68
2022/01/22 05:52:04;;;;;;;234.30;95.63;;;;;;;12.07;100.00;98211.13;4796745;29;20055;-68
2022/01/22 05:55:07;;;;;;;220.52;94.90;;;;;;;12.14;100.00;98210.78;4796751;29;20846;-68
2022/01/22 06:01:00;;;;;;;223.57;95.53;;;;;;;12.29;100.00;98196.41;4783266;29;20063;-64
2022/01/22 06:04:05;;;;;;;221.55;93.20;;;;;;;12.26;100.00;98197.34;4797980;29;20926;-66
2022/01/22 06:07:00;;;;;;;223.82;94.80;;;;;;;12.32;100.00;98198.81;4783907;29;20055;-66
2022/01/22 06:09:55;;;;;;;203.73;92.53;;;;;;;12.29;100.00;98192.97;4778851;29;20628;-64
2022/01/22 06:12:57;;;;;;;214.20;93.57;;;;;;;12.29;100.00;98187.81;4784480;29;20513;-66
2022/01/22 06:15:39;;;;;;;207.02;92.30;;;;;;;12.38;100.00;98183.03;4783866;29;20126;-65
2022/01/22 06:19:05;;;;;;;206.35;88.97;;;;;;;12.24;100.00;98177.66;4791128;29;20592;-65
2022/01/22 06:21:48;;;;;;;194.90;86.45;;;;;;;12.49;100.00;98167.06;4771879;29;20066;-65
2022/01/22 06:24:31;;;;;;;200.30;87.55;;;;;;;12.42;100.00;98171.69;4780172;29;20059;-65
2022/01/22 06:27:20;;;;;;;196.07;87.05;;;;;;;12.42;100.00;98169.09;4793023;29;20055;-68
2022/01/22 06:30:02;;;;;;;194.85;87.50;;;;;;;12.34;100.00;98171.19;4774322;29;20051;-68
2022/01/22 06:32:56;;;;;;;201.60;91.05;;;;;;;12.40;100.00;98168.31;4765288;29;20081;-69
2022/01/22 06:35:40;;;;;;;190.00;86.60;;;;;;;12.53;100.00;98156.50;4783808;29;20055;-73
2022/01/22 06:38:32;;;;;;;197.57;86.20;;;;;;;12.53;100.00;98151.34;4781245;29;20065;-66
2022/01/22 06:41:48;;;;;;;190.52;85.70;;;;;;;12.59;100.00;98151.06;4763134;29;20050;-73
2022/01/22 06:44:37;;;;;;;204.77;87.20;;;;;;;12.63;100.00;98139.66;4790202;29;20047;-70
2022/01/22 06:47:39;;;;;;;189.98;84.70;;;;;;;12.54;100.00;98145.25;4796919;29;20069;-72
2022/01/22 06:50:32;;;;;;;189.73;86.53;;;;;;;12.52;100.00;98130.75;4782314;29;20062;-71
2022/01/22 06:53:14;;;;;;;191.13;85.50;;;;;;;12.54;100.00;98129.75;4788958;29;20078;-72
2022/01/22 06:56:04;;;;;;;179.60;83.75;;;;;;;12.50;100.00;98123.06;4779934;29;20061;-70
2022/01/22 06:59:08;;;;;;;184.60;82.63;;;;;;;12.47;100.00;98123.22;4794376;29;20236;-74
2022/01/22 07:01:58;;;;;;;197.70;84.22;;;;;;;12.43;100.00;98120.84;4779904;29;20142;-76
2022/01/22 07:04:41;;;;;;;193.27;85.97;;;;;;;12.43;100.00;98116.53;4781768;29;20054;-72
2022/01/22 07:08:08;;;;;;;183.50;83.38;;;;;;;12.43;100.00;98110.53;4774340;29;20058;-74
2022/01/22 07:10:56;;;;;;;184.73;84.18;;;;;;;12.37;100.00;98103.06;4779977;29;20086;-66
2022/01/22 07:13:50;;;;;;;174.55;82.03;;;;;;;12.34;100.00;98085.13;4781458;29;20046;-66
2022/01/22 07:16:32;;;;;;;193.18;84.90;;;;;;;12.38;100.00;98074.56;4794360;29;20639;-69
2022/01/22 07:19:44;;;;;;;181.07;81.95;;;;;;;12.57;100.00;98070.19;4781154;29;20154;-71
2022/01/22 07:22:49;;;;;;;174.77;80.55;;;;;;;12.70;100.00;98062.69;4759712;29;20165;-74
2022/01/22 07:25:50;;;;;;;183.85;82.50;;;;;;;12.86;100.00;98062.78;4778572;29;20058;-76
2022/01/22 07:29:04;;;;;;;177.85;81.95;;;;;;;12.75;100.00;98076.25;4788280;29;20055;-72
2022/01/22 07:31:42;;;;;;;175.77;79.30;;;;;;;12.71;100.00;98061.78;4775364;29;20656;-75
2022/01/22 07:34:31;;;;;;;164.27;76.05;;;;;;;12.83;100.00;98055.19;4777050;29;20198;-68
2022/01/22 07:37:25;;;;;;;150.60;70.32;;;;;;;12.74;100.00;98053.88;4776999;29;20090;-67
2022/01/22 07:40:22;;;;;;;149.27;71.15;;;;;;;12.55;100.00;98043.59;4776565;29;20515;-70
2022/01/22 07:43:14;;;;;;;152.75;71.40;;;;;;;12.70;100.00;98043.75;4766613;29;20343;-68
2022/01/22 07:46:21;;;;;;;143.32;67.80;;;;;;;12.49;100.00;98030.97;4796820;29;20069;-67
2022/01/22 07:49:50;;;;;;;157.77;73.85;;;;;;;12.47;100.00;98031.94;4780797;29;20491;-67
2022/01/22 07:52:32;;;;;;;157.27;73.93;;;;;;;12.24;100.00;98027.88;4780024;29;20051;-70
2022/01/22 07:55:27;;;;;;;175.13;78.18;;;;;;;12.36;100.00;98014.41;4778187;29;20047;-68
2022/01/22 07:58:03;;;;;;;189.57;82.68;;;;;;;12.21;100.00;98017.72;4779433;29;20046;-68
2022/01/22 08:00:52;;;;;;;181.20;83.25;;;;;;;12.35;100.00;98006.72;4777507;29;20061;-69
2022/01/22 08:03:41;;;;;;;185.05;85.40;;;;;;;12.25;100.00;98003.75;4777382;29;20081;-69
2022/01/22 08:06:51;;;;;;;181.55;86.05;;;;;;;12.31;100.00;98000.84;4793903;29;20141;-68
2022/01/22 08:09:58;;;;;;;181.45;86.18;;;;;;;12.25;100.00;97996.81;4792883;29;20093;-72
2022/01/22 08:12:53;;;;;;;198.33;86.43;;;;;;;12.39;100.00;97996.16;4445967;29;10000154;-67
2022/01/22 08:15:35;;;;;;;182.50;84.53;;;;;;;12.40;100.00;97992.66;4778080;29;20055;-72
2022/01/22 08:18:23;;;;;;;175.63;85.57;;;;;;;12.24;100.00;97982.25;4774525;29;21401;-75
2022/01/22 08:21:07;;;;;;;177.40;84.97;;;;;;;12.19;100.00;97978.22;4779466;29;20444;-75
2022/01/22 08:24:15;;;;;;;177.55;82.82;;;;;;;12.23;100.00;97974.56;4792427;29;20075;-70
2022/01/22 08:29:57;;;;;;;170.07;83.15;;;;;;;12.19;100.00;97968.72;4773634;29;20058;-72
2022/01/22 08:35:53;;;;;;;180.20;83.05;;;;;;;12.20;100.00;97959.25;4777762;29;20315;-70
2022/01/22 08:38:42;;;;;;;174.70;81.93;;;;;;;12.24;100.00;97959.00;4793130;29;20109;-71
2022/01/22 08:41:27;;;;;;;178.70;83.45;;;;;;;12.25;100.00;97962.41;4796351;29;20054;-72
2022/01/22 08:44:17;;;;;;;174.05;82.30;;;;;;;12.26;100.00;97956.34;4786253;29;20122;-70
2022/01/22 08:47:08;;;;;;;184.50;83.15;;;;;;;12.23;100.00;97959.91;4784049;29;20050;-70
2022/01/22 08:49:58;;;;;;;178.43;84.00;;;;;;;12.23;100.00;97949.56;4814634;29;20099;-70
2022/01/22 08:52:43;;;;;;;167.63;81.22;;;;;;;12.13;100.00;97950.91;4804740;29;20138;-69
2022/01/22 08:55:33;;;;;;;173.43;79.03;;;;;;;12.19;100.00;97952.41;4797522;29;20484;-71
2022/01/22 08:58:16;;;;;;;171.55;77.78;;;;;;;12.24;100.00;97968.50;4778888;29;20081;-69
2022/01/22 09:01:14;;;;;;;176.20;78.35;;;;;;;12.14;100.00;97970.66;4779737;29;20096;-70
2022/01/22 09:03:59;;;;;;;168.43;78.82;;;;;;;12.15;100.00;97956.84;4784579;29;20065;-70
2022/01/22 09:07:02;;;;;;;155.65;77.63;;;;;;;12.23;100.00;97954.75;4799296;29;20046;-70
2022/01/22 09:09:55;;;;;;;154.55;73.72;;;;;;;12.12;100.00;97953.59;4803475;29;20066;-70
2022/01/22 09:12:45;;;;;;;160.18;73.47;;;;;;;12.15;100.00;97958.59;4799012;29;20065;-70
2022/01/22 09:15:43;;;;;;;150.68;72.05;;;;;;;12.26;100.00;97953.78;4784155;29;20058;-70
2022/01/22 09:18:25;;;;;;;153.88;74.22;;;;;;;12.21;100.00;97951.38;4806494;29;20065;-68
2022/01/22 09:21:13;;;;;;;158.63;73.25;;;;;;;12.32;100.00;97945.72;4777992;29;20115;-68
2022/01/22 09:23:56;;;;;;;143.38;72.95;;;;;;;12.11;100.00;97955.34;4793451;29;20059;-69
2022/01/22 09:26:53;;;;;;;153.68;71.78;;;;;;;12.20;100.00;97954.91;4783078;29;20145;-70
2022/01/22 09:29:36;;;;;;;143.73;69.97;;;;;;;12.20;100.00;97954.91;4780404;29;20055;-68
2022/01/22 09:32:26;;;;;;;147.18;68.95;;;;;;;12.18;100.00;97946.41;4795812;29;20062;-68
2022/01/22 09:35:24;;;;;;;133.45;64.20;;;;;;;12.23;100.00;97939.25;4779077;29;20055;-69
2022/01/22 09:38:39;;;;;;;134.35;62.55;;;;;;;12.24;100.00;97930.59;4783200;29;20102;-70
2022/01/22 09:41:48;;;;;;;112.82;55.58;;;;;;;12.22;100.00;97929.00;4789314;29;20059;-71
2022/01/22 09:44:46;;;;;;;108.63;52.63;;;;;;;12.23;100.00;97920.34;4798409;29;20484;-70
2022/01/22 09:48:00;;;;;;;98.63;51.03;;;;;;;12.29;100.00;97922.66;4797601;29;20739;-69
2022/01/22 09:51:09;;;;;;;103.80;49.53;;;;;;;12.17;100.00;97930.97;4779106;29;20134;-71
2022/01/22 09:54:11;;;;;;;92.93;48.17;;;;;;;12.16;100.00;97922.38;4794613;29;20055;-69
2022/01/22 09:57:25;;;;;;;86.15;43.28;;;;;;;12.09;100.00;97920.19;4780019;29;20045;-69
2022/01/22 10:00:32;;;;;;;77.60;41.08;;;;;;;12.12;100.00;97923.47;4782983;29;20066;-70
2022/01/22 10:03:24;;;;;;;80.80;42.50;;;;;;;12.02;100.00;97919.63;4790837;29;20157;-70
2022/01/22 10:06:34;;;;;;;78.55;42.67;;;;;;;12.11;100.00;97923.53;4787290;29;20059;-69
2022/01/22 10:09:46;;;;;;;85.10;43.58;;;;;;;12.14;100.00;97920.78;4790643;29;20062;-69
2022/01/22 10:12:51;;;;;;;78.30;41.08;;;;;;;12.22;100.00;97914.34;4787481;29;20050;-69
2022/01/22 10:15:46;;;;;;;80.45;42.42;;;;;;;12.10;100.00;97914.09;4790129;29;20057;-69
2022/01/22 10:18:27;;;;;;;78.55;42.35;;;;;;;12.15;100.00;97912.13;4778015;29;20136;-68
2022/01/22 10:21:28;;;;;;;76.00;41.40;;;;;;;12.14;100.00;97915.63;4791103;29;20354;-69
2022/01/22 10:24:40;;;;;;;76.80;41.38;;;;;;;12.13;100.00;97911.38;4789065;29;20047;-68
2022/01/22 10:27:35;;;;;;;75.85;39.65;;;;;;;12.13;100.00;97911.38;4791408;29;20050;-68
2022/01/22 10:30:18;;;;;;;72.20;40.05;;;;;;;12.09;100.00;97915.00;4775063;29;20050;-69
2022/01/22 10:33:17;;;;;;;78.45;40.20;;;;;;;12.13;100.00;97908.81;4785495;29;20053;-69
2022/01/22 10:36:23;;;;;;;72.18;38.63;;;;;;;12.12;100.00;97909.72;4789680;29;20101;-68
2022/01/22 10:39:40;;;;;;;72.55;37.08;;;;;;;12.02;100.00;97911.06;4776490;29;20051;-68
2022/01/22 10:42:24;;;;;;;71.10;37.53;;;;;;;12.05;100.00;97916.09;4783317;29;20124;-67
2022/01/22 10:45:23;;;;;;;71.25;37.85;;;;;;;11.96;100.00;97912.19;4778564;29;20064;-68
2022/01/22 10:48:15;;;;;;;72.97;35.88;;;;;;;11.93;100.00;97907.19;4782076;29;20047;-69
2022/01/22 10:51:19;;;;;;;72.15;36.25;;;;;;;11.99;100.00;97909.44;4782013;29;20094;-69
2022/01/22 10:54:03;;;;;;;65.30;35.38;;;;;;;11.94;100.00;97908.00;4784878;29;20054;-67
2022/01/22 10:56:52;;;;;;;66.90;36.70;;;;;;;12.06;100.00;97910.81;4798923;29;20480;-67
2022/01/22 10:59:33;;;;;;;69.95;35.47;;;;;;;11.94;100.00;97913.16;4791601;29;20664;-67
2022/01/22 11:02:22;;;;;;;69.45;36.05;;;;;;;11.92;100.00;97907.25;4775034;29;20086;-68
2022/01/22 11:05:32;;;;;;;68.72;35.65;;;;;;;11.93;100.00;97903.75;4784343;29;20109;-68
2022/01/22 11:08:18;;;;;;;68.32;35.38;;;;;;;11.97;100.00;97903.56;4795580;29;20046;-67
2022/01/22 11:11:05;;;;;;;71.95;35.33;;;;;;;11.99;100.00;97903.44;4794770;29;20135;-69
2022/01/22 11:13:48;;;;;;;61.60;34.15;;;;;;;11.99;100.00;97898.28;4795676;29;20161;-68
2022/01/22 11:16:40;;;;;;;69.30;37.35;;;;;;;11.96;100.00;97903.63;4795240;29;20126;-66
2022/01/22 11:19:33;;;;;;;66.95;34.70;;;;;;;11.88;100.00;97902.25;4794373;29;20055;-68
2022/01/22 11:22:25;;;;;;;68.53;37.50;;;;;;;11.84;100.00;97895.53;4792490;29;20051;-68
2022/01/22 11:25:21;;;;;;;67.32;36.97;;;;;;;11.87;100.00;97902.31;4795086;29;20055;-69
2022/01/22 11:27:57;;;;;;;64.38;34.58;;;;;;;11.82;100.00;97897.34;4792350;29;20603;-67
2022/01/22 11:30:48;;;;;;;74.38;37.08;;;;;;;11.89;100.00;97897.91;4794756;29;20081;-67
2022/01/22 11:33:32;;;;;;;64.13;36.45;;;;;;;11.85;100.00;97902.38;4796221;29;20157;-68
2022/01/22 11:36:42;;;;;;;74.30;36.45;;;;;;;11.86;100.00;97903.22;4795764;29;20062;-67
2022/01/22 11:39:20;;;;;;;66.95;36.78;;;;;;;11.75;100.00;97897.72;4781826;29;20105;-68
2022/01/22 11:42:14;;;;;;;64.57;34.92;;;;;;;11.81;100.00;97900.03;4783732;29;20046;-67
2022/01/22 11:45:02;;;;;;;61.55;33.15;;;;;;;11.82;100.00;97905.09;4795442;29;20158;-68
2022/01/22 11:48:13;;;;;;;64.00;33.42;;;;;;;11.82;100.00;97901.69;4795415;29;20196;-69
2022/01/22 11:50:56;;;;;;;;;;;;;;;11.80;100.00;97898.34;4790291;29;20139;-71
2022/01/22 11:53:55;;;;;;;59.75;32.60;;;;;;;11.88;100.00;97901.41;4783627;29;19933;-69
2022/01/22 11:56:52;;;;;;;60.35;32.75;;;;;;;11.85;100.00;97904.13;4796624;29;20051;-69
2022/01/22 11:59:46;;;;;;;63.75;32.53;;;;;;;11.89;100.00;97903.88;4796717;29;20172;-70
2022/01/22 12:02:21;;;;;;;60.70;31.45;;;;;;;11.80;100.00;97904.34;4796731;29;20073;-69
2022/01/22 12:05:18;;;;;;;57.33;31.05;;;;;;;11.86;100.00;97898.06;4795411;29;20146;-70
2022/01/22 12:08:01;;;;;;;61.28;32.55;;;;;;;11.91;100.00;97902.97;4792335;29;20420;-69
2022/01/22 12:16:59;;;;;;;69.40;33.55;;;;;;;11.78;100.00;97908.75;4798856;29;20066;-67
2022/01/22 12:20:39;;;;;;;64.05;33.20;;;;;;;11.70;100.00;97897.91;4795908;29;20066;-67
2022/01/22 12:22:56;;;;;;;61.05;32.75;;;;;;;11.74;100.00;97903.75;4796758;29;20316;-68
2022/01/22 12:25:35;;;;;;;70.07;37.55;;;;;;;11.70;100.00;97903.06;4798912;29;20063;-67
2022/01/22 12:28:39;;;;;;;67.72;35.08;;;;;;;11.74;100.00;97899.47;4800046;29;20073;-67
2022/01/22 12:31:21;;;;;;;56.50;32.20;;;;;;;11.63;100.00;97896.53;4799980;29;20058;-67
2022/01/22 12:34:10;;;;;;;62.90;33.78;;;;;;;11.64;100.00;97887.88;4802445;29;20094;-68
2022/01/22 12:36:51;;;;;;;50.35;28.25;;;;;;;11.64;100.00;97876.72;4802046;29;20051;-66
2022/01/22 12:39:51;;;;;;;53.55;28.00;;;;;;;11.63;100.00;97875.91;4798630;29;20058;-69
2022/01/22 12:42:59;;;;;;;46.83;26.50;;;;;;;11.58;100.00;97872.69;4800113;29;20059;-68
2022/01/22 12:45:55;;;;;;;50.38;26.23;;;;;;;11.58;100.00;97864.09;4799504;29;20550;-68
2022/01/22 12:48:38;;;;;;;45.92;25.27;;;;;;;11.51;100.00;97861.81;4798841;29;20146;-69
2022/01/22 12:51:32;;;;;;;50.42;26.30;;;;;;;11.62;100.00;97870.81;4797213;29;20376;-66
2022/01/22 12:54:13;;;;;;;42.80;25.42;;;;;;;11.53;100.00;97869.50;4798018;29;20085;-66
2022/01/22 12:57:16;;;;;;;48.38;25.50;;;;;;;11.62;100.00;97870.81;4797362;29;20051;-65
2022/01/22 13:00:16;;;;;;;48.93;26.97;;;;;;;11.56;100.00;97876.25;4791314;29;20058;-64
2022/01/22 13:02:57;;;;;;;48.53;25.08;;;;;;;11.55;100.00;97878.00;4793632;29;20422;-65
2022/01/22 13:05:52;;;;;;;56.47;26.38;;;;;;;11.60;100.00;97876.03;4800456;29;20054;-68
2022/01/22 13:08:57;;;;;;;54.22;26.60;;;;;;;11.54;100.00;97889.22;4799349;29;20062;-67
2022/01/22 13:11:52;;;;;;;52.42;26.90;;;;;;;11.54;100.00;97894.38;4794153;29;20058;-69
2022/01/22 13:14:34;;;;;;;52.75;28.73;;;;;;;11.56;100.00;97892.56;4799880;29;20069;-69
2022/01/22 13:17:24;;;;;;;48.10;26.33;;;;;;;11.55;100.00;97898.63;4784478;29;20141;-69
2022/01/22 13:20:08;;;;;;;44.17;25.08;;;;;;;11.59;100.00;97897.56;4795012;29;20499;-66
2022/01/22 13:23:02;;;;;;;54.22;26.65;;;;;;;11.59;100.00;97897.56;4796066;29;20149;-69
2022/01/22 13:25:38;;;;;;;50.05;26.90;;;;;;;11.63;100.00;97914.59;4797365;29;20262;-64
2022/01/22 13:28:39;;;;;;;47.90;25.37;;;;;;;11.61;100.00;97911.25;4798076;29;20055;-64
2022/01/22 13:31:27;;;;;;;48.03;25.83;;;;;;;11.64;100.00;97918.84;4799138;29;20058;-66
2022/01/22 13:34:28;;;;;;;50.00;25.08;;;;;;;11.64;100.00;97913.69;4799808;29;20135;-68
2022/01/22 13:40:27;;;;;;;47.45;25.40;;;;;;;11.69;100.00;97916.88;4799038;29;20054;-66
2022/01/22 13:49:51;;;;;;;49.60;26.05;;;;;;;11.78;100.00;97931.97;4793809;29;20050;-67
2022/01/22 13:52:35;;;;;;;49.03;27.15;;;;;;;11.74;100.00;97945.91;4796088;29;20055;-68
2022/01/22 13:55:25;;;;;;;49.80;26.35;;;;;;;11.67;100.00;97949.66;4789525;29;20051;-67
2022/01/22 13:58:21;;;;;;;60.20;28.38;;;;;;;11.78;100.00;97955.19;4788000;29;20061;-67
2022/01/22 14:01:27;;;;;;;51.30;26.27;;;;;;;11.72;100.00;97952.03;4792947;29;20063;-68
2022/01/22 14:04:15;;;;;;;47.60;26.55;;;;;;;11.71;100.00;97958.94;4789595;29;20051;-68
2022/01/22 14:07:35;;;;;;;56.53;28.48;;;;;;;11.70;100.00;97957.25;4794366;29;20050;-66
2022/01/22 14:10:17;;;;;;;;;;;;;;;11.74;100.00;97961.38;4750055;29;20054;-66
2022/01/22 14:13:11;;;;;;;54.40;29.73;;;;;;;11.68;100.00;97964.22;4776912;29;19929;-67
2022/01/22 14:15:53;;;;;;;61.05;32.20;;;;;;;11.71;100.00;97964.09;4773766;29;20475;-68
2022/01/22 14:18:43;;;;;;;57.80;33.13;;;;;;;11.75;100.00;97967.38;4777703;29;20054;-67
2022/01/22 14:21:26;;;;;;;61.97;32.67;;;;;;;11.72;100.00;97958.03;4792496;29;20054;-66
2022/01/22 14:24:23;;;;;;;59.63;33.85;;;;;;;11.69;100.00;97957.31;4793012;29;20054;-67
2022/01/22 14:27:00;;;;;;;63.50;35.70;;;;;;;11.66;100.00;97955.72;4780823;29;20058;-68
2022/01/22 14:29:55;;;;;;;65.75;34.90;;;;;;;11.72;100.00;97955.44;4790696;29;20073;-67
2022/01/22 14:32:58;;;;;;;63.15;35.67;;;;;;;11.75;100.00;97957.06;4786095;29;20236;-66
2022/01/22 14:35:49;;;;;;;69.10;37.70;;;;;;;11.75;100.00;97954.47;4793254;29;20061;-67
2022/01/22 14:45:16;;;;;;;65.82;37.90;;;;;;;11.61;100.00;97962.84;4791211;29;20046;-67